sensor_id;sensor_type;location;lat;lon;timestamp;temperature;humidity
2463;DHT22;1243;54.298;10.172;2023-03-14T00:02:21;10.40;1.00
2463;DHT22;1243;54.298;10.172;2023-03-14T00:04:47;10.40;1.00
2463;DHT22;1243;54.298;10.172;2023-03-14T00:07:13;10.30;1.00
2463;DHT22;1243;54.298;10.172;2023-03-14T00:09:39;10.20;1.00
2463;DHT22;1243;54.298;10.172;2023-03-14T00:12:06;10.20;5.20
2463;DHT22;1243;54.298;10.172;2023-03-14T00:14:33;10.20;9.20
2463;DHT22;1243;54.298;10.172;2023-03-14T00:16:58;10.10;10.90
2463;DHT22;1243;54.298;10.172;2023-03-14T00:19:24;10.20;15.90
2463;DHT22;1243;54.298;10.172;2023-03-14T00:21:50;10.20;18.90
2463;DHT22;1243;54.298;10.172;2023-03-14T00:24:15;10.20;18.20
2463;DHT22;1243;54.298;10.172;2023-03-14T00:26:41;10.20;21.30
2463;DHT22;1243;54.298;10.172;2023-03-14T00:29:07;10.20;23.20
2463;DHT22;1243;54.298;10.172;2023-03-14T00:31:32;10.10;28.30
2463;DHT22;1243;54.298;10.172;2023-03-14T00:33:58;10.10;32.30
2463;DHT22;1243;54.298;10.172;2023-03-14T00:36:24;10.20;34.60
2463;DHT22;1243;54.298;10.172;2023-03-14T00:38:51;10.20;36.10
2463;DHT22;1243;54.298;10.172;2023-03-14T00:41:20;10.20;37.30
2463;DHT22;1243;54.298;10.172;2023-03-14T00:43:47;10.20;39.80
2463;DHT22;1243;54.298;10.172;2023-03-14T00:46:13;10.20;39.40
2463;DHT22;1243;54.298;10.172;2023-03-14T00:48:39;10.20;40.90
2463;DHT22;1243;54.298;10.172;2023-03-14T00:51:08;10.20;42.60
2463;DHT22;1243;54.298;10.172;2023-03-14T00:53:38;10.20;45.80
2463;DHT22;1243;54.298;10.172;2023-03-14T00:56:06;10.20;47.10
2463;DHT22;1243;54.298;10.172;2023-03-14T00:58:31;10.20;44.40
2463;DHT22;1243;54.298;10.172;2023-03-14T01:00:57;10.20;44.40
2463;DHT22;1243;54.298;10.172;2023-03-14T01:03:23;10.20;42.80
2463;DHT22;1243;54.298;10.172;2023-03-14T01:05:49;10.10;44.20
2463;DHT22;1243;54.298;10.172;2023-03-14T01:08:15;10.20;45.60
2463;DHT22;1243;54.298;10.172;2023-03-14T01:10:41;10.10;44.00
2463;DHT22;1243;54.298;10.172;2023-03-14T01:13:08;10.10;47.20
2463;DHT22;1243;54.298;10.172;2023-03-14T01:15:34;10.10;46.10
2463;DHT22;1243;54.298;10.172;2023-03-14T01:18:00;10.00;42.90
2463;DHT22;1243;54.298;10.172;2023-03-14T01:20:26;10.00;48.90
2463;DHT22;1243;54.298;10.172;2023-03-14T01:22:52;10.00;50.00
2463;DHT22;1243;54.298;10.172;2023-03-14T01:25:18;10.00;50.70
2463;DHT22;1243;54.298;10.172;2023-03-14T01:27:44;10.00;53.00
2463;DHT22;1243;54.298;10.172;2023-03-14T01:30:11;10.00;51.80
2463;DHT22;1243;54.298;10.172;2023-03-14T01:32:37;10.00;53.60
2463;DHT22;1243;54.298;10.172;2023-03-14T01:35:03;10.00;54.50
2463;DHT22;1243;54.298;10.172;2023-03-14T01:37:29;10.00;56.00
2463;DHT22;1243;54.298;10.172;2023-03-14T01:39:54;10.10;55.30
2463;DHT22;1243;54.298;10.172;2023-03-14T01:42:20;10.10;54.60
2463;DHT22;1243;54.298;10.172;2023-03-14T01:47:15;10.20;59.60
2463;DHT22;1243;54.298;10.172;2023-03-14T01:49:41;10.30;55.40
2463;DHT22;1243;54.298;10.172;2023-03-14T01:52:11;10.20;54.00
2463;DHT22;1243;54.298;10.172;2023-03-14T01:54:42;10.30;55.60
2463;DHT22;1243;54.298;10.172;2023-03-14T01:57:15;10.40;59.40
2463;DHT22;1243;54.298;10.172;2023-03-14T01:59:47;10.40;59.80
2463;DHT22;1243;54.298;10.172;2023-03-14T02:02:15;10.30;60.10
2463;DHT22;1243;54.298;10.172;2023-03-14T02:04:41;10.30;57.50
2463;DHT22;1243;54.298;10.172;2023-03-14T02:07:23;10.30;60.00
2463;DHT22;1243;54.298;10.172;2023-03-14T02:09:51;10.40;58.00
2463;DHT22;1243;54.298;10.172;2023-03-14T02:12:18;10.30;55.30
2463;DHT22;1243;54.298;10.172;2023-03-14T02:14:45;10.30;58.30
2463;DHT22;1243;54.298;10.172;2023-03-14T02:17:16;10.40;58.90
2463;DHT22;1243;54.298;10.172;2023-03-14T02:22:26;10.30;59.40
2463;DHT22;1243;54.298;10.172;2023-03-14T02:27:26;10.30;59.30
2463;DHT22;1243;54.298;10.172;2023-03-14T02:30:03;10.30;61.10
2463;DHT22;1243;54.298;10.172;2023-03-14T02:32:31;10.30;61.40
2463;DHT22;1243;54.298;10.172;2023-03-14T02:35:00;10.30;61.70
2463;DHT22;1243;54.298;10.172;2023-03-14T02:37:35;10.30;60.80
2463;DHT22;1243;54.298;10.172;2023-03-14T02:40:02;10.30;62.60
2463;DHT22;1243;54.298;10.172;2023-03-14T02:42:29;10.30;63.30
2463;DHT22;1243;54.298;10.172;2023-03-14T02:47:33;10.30;65.90
2463;DHT22;1243;54.298;10.172;2023-03-14T02:50:03;10.30;68.50
2463;DHT22;1243;54.298;10.172;2023-03-14T02:52:29;10.30;69.00
2463;DHT22;1243;54.298;10.172;2023-03-14T02:54:55;10.20;71.40
2463;DHT22;1243;54.298;10.172;2023-03-14T02:57:21;10.20;71.60
2463;DHT22;1243;54.298;10.172;2023-03-14T02:59:47;10.20;75.40
2463;DHT22;1243;54.298;10.172;2023-03-14T03:02:12;10.10;76.00
2463;DHT22;1243;54.298;10.172;2023-03-14T03:04:38;10.10;81.10
2463;DHT22;1243;54.298;10.172;2023-03-14T03:07:04;10.10;84.20
2463;DHT22;1243;54.298;10.172;2023-03-14T03:09:29;10.10;92.10
2463;DHT22;1243;54.298;10.172;2023-03-14T03:11:55;10.10;92.10
2463;DHT22;1243;54.298;10.172;2023-03-14T03:14:21;10.10;92.00
2463;DHT22;1243;54.298;10.172;2023-03-14T03:16:46;10.10;92.10
2463;DHT22;1243;54.298;10.172;2023-03-14T03:19:12;10.20;92.10
2463;DHT22;1243;54.298;10.172;2023-03-14T03:21:39;10.20;92.10
2463;DHT22;1243;54.298;10.172;2023-03-14T03:24:05;10.20;92.10
2463;DHT22;1243;54.298;10.172;2023-03-14T03:26:36;10.20;92.10
2463;DHT22;1243;54.298;10.172;2023-03-14T03:29:03;10.30;92.80
2463;DHT22;1243;54.298;10.172;2023-03-14T03:31:28;10.30;95.60
2463;DHT22;1243;54.298;10.172;2023-03-14T03:33:54;10.40;97.20
2463;DHT22;1243;54.298;10.172;2023-03-14T03:36:24;10.40;97.60
2463;DHT22;1243;54.298;10.172;2023-03-14T03:38:51;10.40;99.00
2463;DHT22;1243;54.298;10.172;2023-03-14T03:41:16;10.40;99.80
2463;DHT22;1243;54.298;10.172;2023-03-14T03:43:42;10.50;99.90
2463;DHT22;1243;54.298;10.172;2023-03-14T03:46:08;10.50;99.90
2463;DHT22;1243;54.298;10.172;2023-03-14T03:48:34;10.60;99.90
2463;DHT22;1243;54.298;10.172;2023-03-14T03:51:00;10.60;99.90
2463;DHT22;1243;54.298;10.172;2023-03-14T03:53:27;10.50;99.90
2463;DHT22;1243;54.298;10.172;2023-03-14T03:55:52;10.60;99.90
2463;DHT22;1243;54.298;10.172;2023-03-14T03:58:18;10.60;99.90
2463;DHT22;1243;54.298;10.172;2023-03-14T04:00:44;10.60;99.90
2463;DHT22;1243;54.298;10.172;2023-03-14T04:03:10;10.50;99.90
2463;DHT22;1243;54.298;10.172;2023-03-14T04:05:36;10.40;99.90
2463;DHT22;1243;54.298;10.172;2023-03-14T04:08:02;10.30;99.90
2463;DHT22;1243;54.298;10.172;2023-03-14T04:10:28;10.30;99.90
2463;DHT22;1243;54.298;10.172;2023-03-14T04:12:54;10.20;99.90
2463;DHT22;1243;54.298;10.172;2023-03-14T04:15:20;10.20;99.90
2463;DHT22;1243;54.298;10.172;2023-03-14T04:17:45;10.20;99.90
2463;DHT22;1243;54.298;10.172;2023-03-14T04:20:11;10.20;99.90
2463;DHT22;1243;54.298;10.172;2023-03-14T04:22:38;10.20;1.00
2463;DHT22;1243;54.298;10.172;2023-03-14T04:25:04;10.20;1.00
2463;DHT22;1243;54.298;10.172;2023-03-14T04:27:30;10.10;1.00
2463;DHT22;1243;54.298;10.172;2023-03-14T04:29:56;10.00;1.00
2463;DHT22;1243;54.298;10.172;2023-03-14T04:32:21;10.00;1.00
2463;DHT22;1243;54.298;10.172;2023-03-14T04:34:47;10.00;1.00
2463;DHT22;1243;54.298;10.172;2023-03-14T04:37:13;9.90;1.00
2463;DHT22;1243;54.298;10.172;2023-03-14T04:39:38;9.80;1.00
2463;DHT22;1243;54.298;10.172;2023-03-14T04:42:04;9.80;1.00
2463;DHT22;1243;54.298;10.172;2023-03-14T04:44:30;9.80;1.00
2463;DHT22;1243;54.298;10.172;2023-03-14T04:46:55;9.80;1.00
2463;DHT22;1243;54.298;10.172;2023-03-14T04:49:21;9.80;1.00
2463;DHT22;1243;54.298;10.172;2023-03-14T04:51:47;9.70;1.00
2463;DHT22;1243;54.298;10.172;2023-03-14T04:54:13;9.70;1.00
2463;DHT22;1243;54.298;10.172;2023-03-14T04:56:38;9.60;1.00
2463;DHT22;1243;54.298;10.172;2023-03-14T04:59:05;9.60;1.00
2463;DHT22;1243;54.298;10.172;2023-03-14T05:01:30;9.50;1.00
2463;DHT22;1243;54.298;10.172;2023-03-14T05:03:56;9.50;1.00
2463;DHT22;1243;54.298;10.172;2023-03-14T05:06:22;9.40;8.40
2463;DHT22;1243;54.298;10.172;2023-03-14T05:08:47;9.40;23.90
2463;DHT22;1243;54.298;10.172;2023-03-14T05:11:13;9.30;32.30
2463;DHT22;1243;54.298;10.172;2023-03-14T05:13:39;9.30;49.20
2463;DHT22;1243;54.298;10.172;2023-03-14T05:16:10;9.30;62.70
2463;DHT22;1243;54.298;10.172;2023-03-14T05:18:36;9.20;76.10
2463;DHT22;1243;54.298;10.172;2023-03-14T05:21:03;9.20;80.60
2463;DHT22;1243;54.298;10.172;2023-03-14T05:23:29;9.20;90.80
2463;DHT22;1243;54.298;10.172;2023-03-14T05:25:55;9.10;94.60
2463;DHT22;1243;54.298;10.172;2023-03-14T05:28:21;9.10;99.90
2463;DHT22;1243;54.298;10.172;2023-03-14T05:30:47;9.00;98.90
2463;DHT22;1243;54.298;10.172;2023-03-14T05:33:13;9.00;99.90
2463;DHT22;1243;54.298;10.172;2023-03-14T05:35:40;8.90;99.90
2463;DHT22;1243;54.298;10.172;2023-03-14T05:38:05;8.90;99.90
2463;DHT22;1243;54.298;10.172;2023-03-14T05:40:31;8.90;99.90
2463;DHT22;1243;54.298;10.172;2023-03-14T05:42:57;8.80;99.90
2463;DHT22;1243;54.298;10.172;2023-03-14T05:45:22;8.80;99.90
2463;DHT22;1243;54.298;10.172;2023-03-14T05:47:48;8.70;99.90
2463;DHT22;1243;54.298;10.172;2023-03-14T05:50:14;8.70;99.90
2463;DHT22;1243;54.298;10.172;2023-03-14T05:52:39;8.70;99.90
2463;DHT22;1243;54.298;10.172;2023-03-14T05:55:05;8.60;99.90
2463;DHT22;1243;54.298;10.172;2023-03-14T05:57:31;8.60;99.90
2463;DHT22;1243;54.298;10.172;2023-03-14T05:59:57;8.60;99.90
2463;DHT22;1243;54.298;10.172;2023-03-14T06:02:22;8.50;99.90
2463;DHT22;1243;54.298;10.172;2023-03-14T06:04:48;8.50;99.90
2463;DHT22;1243;54.298;10.172;2023-03-14T06:07:14;8.50;99.90
2463;DHT22;1243;54.298;10.172;2023-03-14T06:09:39;8.40;99.90
2463;DHT22;1243;54.298;10.172;2023-03-14T06:12:06;8.40;99.90
2463;DHT22;1243;54.298;10.172;2023-03-14T06:14:31;8.50;99.90
2463;DHT22;1243;54.298;10.172;2023-03-14T06:16:57;8.50;99.90
2463;DHT22;1243;54.298;10.172;2023-03-14T06:19:25;8.50;99.90
2463;DHT22;1243;54.298;10.172;2023-03-14T06:21:51;8.50;99.90
2463;DHT22;1243;54.298;10.172;2023-03-14T06:24:17;8.50;99.90
2463;DHT22;1243;54.298;10.172;2023-03-14T06:26:43;8.60;99.90
2463;DHT22;1243;54.298;10.172;2023-03-14T06:29:09;8.70;99.90
2463;DHT22;1243;54.298;10.172;2023-03-14T06:31:35;8.70;99.90
2463;DHT22;1243;54.298;10.172;2023-03-14T06:34:00;8.80;99.90
2463;DHT22;1243;54.298;10.172;2023-03-14T06:36:26;8.90;99.90
2463;DHT22;1243;54.298;10.172;2023-03-14T06:38:52;8.90;99.90
2463;DHT22;1243;54.298;10.172;2023-03-14T06:41:18;9.00;99.90
2463;DHT22;1243;54.298;10.172;2023-03-14T06:43:43;9.00;99.90
2463;DHT22;1243;54.298;10.172;2023-03-14T06:46:09;9.10;99.90
2463;DHT22;1243;54.298;10.172;2023-03-14T06:48:35;9.10;99.90
2463;DHT22;1243;54.298;10.172;2023-03-14T06:51:01;9.20;99.90
2463;DHT22;1243;54.298;10.172;2023-03-14T06:53:26;9.20;99.90
2463;DHT22;1243;54.298;10.172;2023-03-14T06:55:52;9.20;99.90
2463;DHT22;1243;54.298;10.172;2023-03-14T06:58:18;9.30;99.90
2463;DHT22;1243;54.298;10.172;2023-03-14T07:00:44;9.20;99.90
2463;DHT22;1243;54.298;10.172;2023-03-14T07:03:10;9.30;99.90
2463;DHT22;1243;54.298;10.172;2023-03-14T07:05:36;9.30;99.90
2463;DHT22;1243;54.298;10.172;2023-03-14T07:08:01;9.30;99.90
2463;DHT22;1243;54.298;10.172;2023-03-14T07:10:27;9.30;99.90
2463;DHT22;1243;54.298;10.172;2023-03-14T07:12:53;9.30;99.90
2463;DHT22;1243;54.298;10.172;2023-03-14T07:15:19;9.40;99.90
2463;DHT22;1243;54.298;10.172;2023-03-14T07:17:45;9.40;99.90
2463;DHT22;1243;54.298;10.172;2023-03-14T07:20:13;9.40;99.90
2463;DHT22;1243;54.298;10.172;2023-03-14T07:22:39;9.40;99.90
2463;DHT22;1243;54.298;10.172;2023-03-14T07:25:05;9.40;99.90
2463;DHT22;1243;54.298;10.172;2023-03-14T07:27:31;9.40;99.90
2463;DHT22;1243;54.298;10.172;2023-03-14T07:29:56;9.50;99.90
2463;DHT22;1243;54.298;10.172;2023-03-14T07:32:22;9.40;99.90
2463;DHT22;1243;54.298;10.172;2023-03-14T07:34:48;9.50;99.90
2463;DHT22;1243;54.298;10.172;2023-03-14T07:37:14;9.50;99.90
2463;DHT22;1243;54.298;10.172;2023-03-14T07:39:39;9.50;99.90
2463;DHT22;1243;54.298;10.172;2023-03-14T07:42:05;9.60;99.90
2463;DHT22;1243;54.298;10.172;2023-03-14T07:44:31;9.70;99.90
2463;DHT22;1243;54.298;10.172;2023-03-14T07:46:56;9.70;99.90
2463;DHT22;1243;54.298;10.172;2023-03-14T07:49:22;9.80;99.90
2463;DHT22;1243;54.298;10.172;2023-03-14T07:51:48;9.70;99.90
2463;DHT22;1243;54.298;10.172;2023-03-14T07:54:14;9.70;99.90
2463;DHT22;1243;54.298;10.172;2023-03-14T07:56:40;9.70;99.90
2463;DHT22;1243;54.298;10.172;2023-03-14T07:59:06;9.70;99.90
2463;DHT22;1243;54.298;10.172;2023-03-14T08:01:32;9.70;99.90
2463;DHT22;1243;54.298;10.172;2023-03-14T08:03:58;9.60;99.90
2463;DHT22;1243;54.298;10.172;2023-03-14T08:06:24;9.70;99.90
2463;DHT22;1243;54.298;10.172;2023-03-14T08:08:50;9.70;99.90
2463;DHT22;1243;54.298;10.172;2023-03-14T08:11:16;9.70;99.90
2463;DHT22;1243;54.298;10.172;2023-03-14T08:13:41;9.70;99.90
2463;DHT22;1243;54.298;10.172;2023-03-14T08:16:08;9.70;99.90
2463;DHT22;1243;54.298;10.172;2023-03-14T08:18:33;9.70;99.90
2463;DHT22;1243;54.298;10.172;2023-03-14T08:20:59;9.70;99.90
2463;DHT22;1243;54.298;10.172;2023-03-14T08:23:25;9.70;99.90
2463;DHT22;1243;54.298;10.172;2023-03-14T08:25:51;9.70;99.90
2463;DHT22;1243;54.298;10.172;2023-03-14T08:28:17;9.70;99.90
2463;DHT22;1243;54.298;10.172;2023-03-14T08:30:43;9.70;99.90
2463;DHT22;1243;54.298;10.172;2023-03-14T08:33:09;9.70;99.90
2463;DHT22;1243;54.298;10.172;2023-03-14T08:35:37;9.70;99.90
2463;DHT22;1243;54.298;10.172;2023-03-14T08:38:03;9.60;99.90
2463;DHT22;1243;54.298;10.172;2023-03-14T08:40:29;9.60;99.90
2463;DHT22;1243;54.298;10.172;2023-03-14T08:42:54;9.50;99.90
2463;DHT22;1243;54.298;10.172;2023-03-14T08:45:20;9.40;99.90
2463;DHT22;1243;54.298;10.172;2023-03-14T08:47:47;9.40;99.90
2463;DHT22;1243;54.298;10.172;2023-03-14T08:50:13;9.30;99.90
2463;DHT22;1243;54.298;10.172;2023-03-14T08:52:39;9.40;99.90
2463;DHT22;1243;54.298;10.172;2023-03-14T08:55:07;9.30;99.90
2463;DHT22;1243;54.298;10.172;2023-03-14T08:57:34;9.20;99.90
2463;DHT22;1243;54.298;10.172;2023-03-14T08:59:59;9.00;99.90
2463;DHT22;1243;54.298;10.172;2023-03-14T09:02:26;8.90;99.90
2463;DHT22;1243;54.298;10.172;2023-03-14T09:04:52;8.60;99.90
2463;DHT22;1243;54.298;10.172;2023-03-14T09:07:18;8.00;99.90
2463;DHT22;1243;54.298;10.172;2023-03-14T09:09:44;7.70;99.90
2463;DHT22;1243;54.298;10.172;2023-03-14T09:12:10;7.60;99.90
2463;DHT22;1243;54.298;10.172;2023-03-14T09:14:36;7.50;99.90
2463;DHT22;1243;54.298;10.172;2023-03-14T09:17:03;7.30;99.90
2463;DHT22;1243;54.298;10.172;2023-03-14T09:19:29;6.90;99.90
2463;DHT22;1243;54.298;10.172;2023-03-14T09:21:55;6.30;99.90
2463;DHT22;1243;54.298;10.172;2023-03-14T09:24:20;5.70;99.90
2463;DHT22;1243;54.298;10.172;2023-03-14T09:26:46;5.40;99.90
2463;DHT22;1243;54.298;10.172;2023-03-14T09:29:12;5.20;99.90
2463;DHT22;1243;54.298;10.172;2023-03-14T09:31:38;5.30;99.90
2463;DHT22;1243;54.298;10.172;2023-03-14T09:34:03;5.20;99.90
2463;DHT22;1243;54.298;10.172;2023-03-14T09:36:29;5.00;99.90
2463;DHT22;1243;54.298;10.172;2023-03-14T09:38:55;4.80;99.90
2463;DHT22;1243;54.298;10.172;2023-03-14T09:44:01;4.70;99.90
2463;DHT22;1243;54.298;10.172;2023-03-14T09:46:29;4.50;99.90
2463;DHT22;1243;54.298;10.172;2023-03-14T09:48:56;4.30;99.90
2463;DHT22;1243;54.298;10.172;2023-03-14T09:51:22;4.20;99.90
2463;DHT22;1243;54.298;10.172;2023-03-14T09:53:49;4.00;99.90
2463;DHT22;1243;54.298;10.172;2023-03-14T09:56:31;3.90;99.90
2463;DHT22;1243;54.298;10.172;2023-03-14T09:59:03;4.00;99.90
2463;DHT22;1243;54.298;10.172;2023-03-14T10:01:32;4.00;99.90
2463;DHT22;1243;54.298;10.172;2023-03-14T10:04:06;4.00;99.90
2463;DHT22;1243;54.298;10.172;2023-03-14T10:06:35;3.90;99.90
2463;DHT22;1243;54.298;10.172;2023-03-14T10:09:01;3.90;99.90
2463;DHT22;1243;54.298;10.172;2023-03-14T10:11:27;3.80;99.90
2463;DHT22;1243;54.298;10.172;2023-03-14T10:14:12;3.80;99.90
2463;DHT22;1243;54.298;10.172;2023-03-14T10:16:45;3.90;99.90
2463;DHT22;1243;54.298;10.172;2023-03-14T10:19:16;3.90;99.90
2463;DHT22;1243;54.298;10.172;2023-03-14T10:21:44;3.90;99.90
2463;DHT22;1243;54.298;10.172;2023-03-14T10:24:18;4.00;99.90
2463;DHT22;1243;54.298;10.172;2023-03-14T10:27:17;4.00;99.90
2463;DHT22;1243;54.298;10.172;2023-03-14T10:29:34;4.10;99.90
2463;DHT22;1243;54.298;10.172;2023-03-14T10:32:20;4.20;99.90
2463;DHT22;1243;54.298;10.172;2023-03-14T10:35:07;4.40;99.90
2463;DHT22;1243;54.298;10.172;2023-03-14T10:37:34;4.50;99.90
2463;DHT22;1243;54.298;10.172;2023-03-14T10:40:01;4.60;99.90
2463;DHT22;1243;54.298;10.172;2023-03-14T10:42:33;4.50;99.90
2463;DHT22;1243;54.298;10.172;2023-03-14T10:45:25;4.50;99.90
2463;DHT22;1243;54.298;10.172;2023-03-14T10:47:54;4.50;99.90
2463;DHT22;1243;54.298;10.172;2023-03-14T10:50:30;4.60;99.90
2463;DHT22;1243;54.298;10.172;2023-03-14T10:52:57;4.70;99.90
2463;DHT22;1243;54.298;10.172;2023-03-14T10:55:24;4.80;99.90
2463;DHT22;1243;54.298;10.172;2023-03-14T10:57:51;5.00;99.90
2463;DHT22;1243;54.298;10.172;2023-03-14T11:00:22;5.00;99.90
2463;DHT22;1243;54.298;10.172;2023-03-14T11:11:23;5.50;99.90
2463;DHT22;1243;54.298;10.172;2023-03-14T11:19:55;5.60;99.90
2463;DHT22;1243;54.298;10.172;2023-03-14T11:22:41;5.40;99.90
2463;DHT22;1243;54.298;10.172;2023-03-14T11:30:29;5.70;99.90
2463;DHT22;1243;54.298;10.172;2023-03-14T11:33:07;5.90;99.90
2463;DHT22;1243;54.298;10.172;2023-03-14T11:38:30;6.00;99.90
2463;DHT22;1243;54.298;10.172;2023-03-14T11:40:59;6.00;99.90
2463;DHT22;1243;54.298;10.172;2023-03-14T11:43:29;6.10;99.90
2463;DHT22;1243;54.298;10.172;2023-03-14T11:46:50;6.30;99.90
2463;DHT22;1243;54.298;10.172;2023-03-14T11:48:54;6.30;78.40
2463;DHT22;1243;54.298;10.172;2023-03-14T11:51:34;6.30;15.00
2463;DHT22;1243;54.298;10.172;2023-03-14T11:59:27;6.50;1.00
2463;DHT22;1243;54.298;10.172;2023-03-14T12:07:21;6.30;1.00
2463;DHT22;1243;54.298;10.172;2023-03-14T12:09:51;6.20;1.00
2463;DHT22;1243;54.298;10.172;2023-03-14T12:12:20;6.20;1.00
2463;DHT22;1243;54.298;10.172;2023-03-14T12:14:58;6.30;1.00
2463;DHT22;1243;54.298;10.172;2023-03-14T12:17:34;6.30;1.00
2463;DHT22;1243;54.298;10.172;2023-03-14T12:22:42;6.30;1.00
2463;DHT22;1243;54.298;10.172;2023-03-14T12:35:46;6.20;99.90
2463;DHT22;1243;54.298;10.172;2023-03-14T12:41:15;6.30;1.00
2463;DHT22;1243;54.298;10.172;2023-03-14T12:43:42;6.20;1.00
2463;DHT22;1243;54.298;10.172;2023-03-14T12:48:34;6.00;1.00
2463;DHT22;1243;54.298;10.172;2023-03-14T12:51:05;5.90;1.00
2463;DHT22;1243;54.298;10.172;2023-03-14T12:56:09;5.90;1.00
2463;DHT22;1243;54.298;10.172;2023-03-14T13:01:24;6.20;1.00
2463;DHT22;1243;54.298;10.172;2023-03-14T13:03:51;6.20;99.90
2463;DHT22;1243;54.298;10.172;2023-03-14T13:06:51;6.30;99.90
2463;DHT22;1243;54.298;10.172;2023-03-14T13:12:18;6.50;99.90
2463;DHT22;1243;54.298;10.172;2023-03-14T13:14:48;6.50;99.90
2463;DHT22;1243;54.298;10.172;2023-03-14T13:17:18;6.50;99.90
2463;DHT22;1243;54.298;10.172;2023-03-14T13:19:51;6.60;99.90
2463;DHT22;1243;54.298;10.172;2023-03-14T13:22:38;6.70;99.90
2463;DHT22;1243;54.298;10.172;2023-03-14T13:25:10;6.70;99.90
2463;DHT22;1243;54.298;10.172;2023-03-14T13:27:36;6.70;91.30
2463;DHT22;1243;54.298;10.172;2023-03-14T13:30:22;6.80;91.60
2463;DHT22;1243;54.298;10.172;2023-03-14T13:32:49;7.00;91.30
2463;DHT22;1243;54.298;10.172;2023-03-14T13:35:20;7.20;54.10
2463;DHT22;1243;54.298;10.172;2023-03-14T13:37:46;7.60;21.50
2463;DHT22;1243;54.298;10.172;2023-03-14T13:40:20;8.00;6.30
2463;DHT22;1243;54.298;10.172;2023-03-14T13:42:46;8.20;2.30
2463;DHT22;1243;54.298;10.172;2023-03-14T13:45:13;8.30;1.00
2463;DHT22;1243;54.298;10.172;2023-03-14T13:47:39;8.30;1.00
2463;DHT22;1243;54.298;10.172;2023-03-14T13:50:15;8.40;1.00
2463;DHT22;1243;54.298;10.172;2023-03-14T13:52:40;8.10;1.00
2463;DHT22;1243;54.298;10.172;2023-03-14T13:55:14;7.90;1.00
2463;DHT22;1243;54.298;10.172;2023-03-14T13:57:49;7.80;1.00
2463;DHT22;1243;54.298;10.172;2023-03-14T14:00:28;7.90;1.00
2463;DHT22;1243;54.298;10.172;2023-03-14T14:02:56;7.50;1.00
2463;DHT22;1243;54.298;10.172;2023-03-14T14:05:26;7.10;1.00
2463;DHT22;1243;54.298;10.172;2023-03-14T14:07:52;7.00;1.00
2463;DHT22;1243;54.298;10.172;2023-03-14T14:10:19;6.80;1.00
2463;DHT22;1243;54.298;10.172;2023-03-14T14:13:01;6.70;1.00
2463;DHT22;1243;54.298;10.172;2023-03-14T14:15:31;6.60;1.00
2463;DHT22;1243;54.298;10.172;2023-03-14T14:18:09;6.50;1.00
2463;DHT22;1243;54.298;10.172;2023-03-14T14:20:42;6.60;1.00
2463;DHT22;1243;54.298;10.172;2023-03-14T14:23:19;6.70;1.00
2463;DHT22;1243;54.298;10.172;2023-03-14T14:25:51;6.60;1.00
2463;DHT22;1243;54.298;10.172;2023-03-14T14:28:27;6.60;1.00
2463;DHT22;1243;54.298;10.172;2023-03-14T14:33:57;6.40;1.00
2463;DHT22;1243;54.298;10.172;2023-03-14T14:41:27;8.50;1.00
2463;DHT22;1243;54.298;10.172;2023-03-14T14:43:53;8.60;1.00
2463;DHT22;1243;54.298;10.172;2023-03-14T14:46:19;8.20;1.00
2463;DHT22;1243;54.298;10.172;2023-03-14T14:48:45;7.70;1.00
2463;DHT22;1243;54.298;10.172;2023-03-14T14:51:24;7.20;1.00
2463;DHT22;1243;54.298;10.172;2023-03-14T14:54:01;6.90;1.00
2463;DHT22;1243;54.298;10.172;2023-03-14T14:56:29;6.70;1.00
2463;DHT22;1243;54.298;10.172;2023-03-14T14:58:59;6.80;1.00
2463;DHT22;1243;54.298;10.172;2023-03-14T15:01:33;7.00;1.00
2463;DHT22;1243;54.298;10.172;2023-03-14T15:04:00;7.20;1.00
2463;DHT22;1243;54.298;10.172;2023-03-14T15:13:10;7.40;1.00
2463;DHT22;1243;54.298;10.172;2023-03-14T15:15:35;7.00;1.00
2463;DHT22;1243;54.298;10.172;2023-03-14T15:18:01;6.90;1.00
2463;DHT22;1243;54.298;10.172;2023-03-14T15:20:27;6.90;1.00
2463;DHT22;1243;54.298;10.172;2023-03-14T15:22:52;6.90;1.00
2463;DHT22;1243;54.298;10.172;2023-03-14T15:25:18;6.90;1.00
2463;DHT22;1243;54.298;10.172;2023-03-14T15:27:44;6.70;1.00
2463;DHT22;1243;54.298;10.172;2023-03-14T15:30:12;6.70;1.00
2463;DHT22;1243;54.298;10.172;2023-03-14T15:32:38;6.90;1.00
2463;DHT22;1243;54.298;10.172;2023-03-14T15:35:04;7.10;1.00
2463;DHT22;1243;54.298;10.172;2023-03-14T15:37:30;7.40;1.00
2463;DHT22;1243;54.298;10.172;2023-03-14T15:39:56;7.30;1.00
2463;DHT22;1243;54.298;10.172;2023-03-14T15:42:23;7.20;1.00
2463;DHT22;1243;54.298;10.172;2023-03-14T15:44:49;6.90;1.00
2463;DHT22;1243;54.298;10.172;2023-03-14T15:47:15;6.70;1.00
2463;DHT22;1243;54.298;10.172;2023-03-14T15:49:40;6.60;1.00
2463;DHT22;1243;54.298;10.172;2023-03-14T15:52:06;6.60;1.00
2463;DHT22;1243;54.298;10.172;2023-03-14T15:54:34;6.40;1.00
2463;DHT22;1243;54.298;10.172;2023-03-14T15:56:59;6.50;1.00
2463;DHT22;1243;54.298;10.172;2023-03-14T15:59:25;6.80;1.00
2463;DHT22;1243;54.298;10.172;2023-03-14T16:01:51;6.70;1.00
2463;DHT22;1243;54.298;10.172;2023-03-14T16:04:17;6.60;1.00
2463;DHT22;1243;54.298;10.172;2023-03-14T16:06:44;6.40;1.00
2463;DHT22;1243;54.298;10.172;2023-03-14T16:09:11;6.40;1.00
2463;DHT22;1243;54.298;10.172;2023-03-14T16:11:37;6.40;1.00
2463;DHT22;1243;54.298;10.172;2023-03-14T16:14:03;6.30;1.00
2463;DHT22;1243;54.298;10.172;2023-03-14T16:16:29;6.20;1.00
2463;DHT22;1243;54.298;10.172;2023-03-14T16:18:54;6.20;1.00
2463;DHT22;1243;54.298;10.172;2023-03-14T16:21:21;6.10;1.00
2463;DHT22;1243;54.298;10.172;2023-03-14T16:23:46;6.00;1.00
2463;DHT22;1243;54.298;10.172;2023-03-14T16:26:14;5.90;1.00
2463;DHT22;1243;54.298;10.172;2023-03-14T16:28:41;5.80;1.00
2463;DHT22;1243;54.298;10.172;2023-03-14T16:31:08;5.80;1.00
2463;DHT22;1243;54.298;10.172;2023-03-14T16:33:35;5.60;1.00
2463;DHT22;1243;54.298;10.172;2023-03-14T16:36:04;5.40;1.00
2463;DHT22;1243;54.298;10.172;2023-03-14T16:38:34;5.30;1.00
2463;DHT22;1243;54.298;10.172;2023-03-14T16:41:15;5.30;1.00
2463;DHT22;1243;54.298;10.172;2023-03-14T16:43:41;5.30;1.00
2463;DHT22;1243;54.298;10.172;2023-03-14T16:46:11;5.30;1.00
2463;DHT22;1243;54.298;10.172;2023-03-14T16:48:38;5.10;1.00
2463;DHT22;1243;54.298;10.172;2023-03-14T16:51:04;5.00;1.00
2463;DHT22;1243;54.298;10.172;2023-03-14T16:53:29;5.00;1.00
2463;DHT22;1243;54.298;10.172;2023-03-14T16:55:56;4.90;1.00
2463;DHT22;1243;54.298;10.172;2023-03-14T16:58:22;4.90;1.00
2463;DHT22;1243;54.298;10.172;2023-03-14T17:00:48;4.90;1.00
2463;DHT22;1243;54.298;10.172;2023-03-14T17:03:15;4.90;1.00
2463;DHT22;1243;54.298;10.172;2023-03-14T17:05:49;4.90;1.00
2463;DHT22;1243;54.298;10.172;2023-03-14T17:08:17;4.80;1.00
2463;DHT22;1243;54.298;10.172;2023-03-14T17:10:43;4.70;1.00
2463;DHT22;1243;54.298;10.172;2023-03-14T17:13:09;4.70;1.00
2463;DHT22;1243;54.298;10.172;2023-03-14T17:15:35;4.60;1.00
2463;DHT22;1243;54.298;10.172;2023-03-14T17:18:01;4.50;1.00
2463;DHT22;1243;54.298;10.172;2023-03-14T17:20:29;4.60;1.00
2463;DHT22;1243;54.298;10.172;2023-03-14T17:22:55;4.50;1.00
2463;DHT22;1243;54.298;10.172;2023-03-14T17:25:21;4.50;1.00
2463;DHT22;1243;54.298;10.172;2023-03-14T17:27:47;4.40;1.00
2463;DHT22;1243;54.298;10.172;2023-03-14T17:30:13;4.30;1.00
2463;DHT22;1243;54.298;10.172;2023-03-14T17:32:38;4.30;1.00
2463;DHT22;1243;54.298;10.172;2023-03-14T17:35:04;4.40;1.00